Time;durP1;ratioP1;P1;durP2;ratioP2;P2;SDS_P1;SDS_P2;PMS_P1;PMS_P2;Temp;Humidity;BMP_temperature;BMP_pressure;BME280_temperature;BME280_humidity;BME280_pressure;Samples;Min_cycle;Max_cycle;Signal;HPM_P1;HPM_P2
2021/07/07 00:05:40;;;;;;;1999.90;999.90;;;;;;;23.01;66.17;100931.41;15865211;27;20036;-64
2021/07/07 00:13:14;;;;;;;1999.90;999.90;;;;;;;22.97;65.91;100958.28;15878732;27;20405;-64
2021/07/07 00:20:47;;;;;;;1999.90;999.90;;;;;;;22.73;66.91;100963.59;15886444;27;20336;-63
2021/07/07 00:28:21;;;;;;;1999.90;999.90;;;;;;;22.44;67.62;100957.16;15903275;27;20039;-63
2021/07/07 00:35:54;;;;;;;1999.90;999.90;;;;;;;22.54;67.93;100951.88;15870241;27;20506;-63
2021/07/07 00:43:27;;;;;;;1999.90;999.90;;;;;;;22.35;69.85;100951.09;15886737;27;20051;-63
2021/07/07 00:51:00;;;;;;;1999.90;999.90;;;;;;;22.26;70.13;100964.91;15884101;27;20036;-62
2021/07/07 00:58:35;;;;;;;1999.90;999.90;;;;;;;22.22;70.83;100949.88;15899113;27;21957;-63
2021/07/07 01:06:07;;;;;;;1999.90;999.90;;;;;;;22.05;72.41;100947.81;15890485;27;20067;-62
2021/07/07 01:13:42;;;;;;;1999.90;999.90;;;;;;;21.93;74.60;100943.34;15880489;27;20040;-63
2021/07/07 01:21:18;;;;;;;1999.90;999.90;;;;;;;21.65;73.28;100940.47;15863698;28;20088;-61
2021/07/07 01:28:51;;;;;;;1999.90;999.90;;;;;;;21.22;75.96;100978.06;15898281;27;20066;-63
2021/07/07 01:36:23;;;;;;;1999.90;999.90;;;;;;;21.63;76.95;100955.09;15900827;28;20042;-62
2021/07/07 01:43:58;;;;;;;1999.90;999.90;;;;;;;21.66;76.73;100982.66;15843262;28;20044;-62
2021/07/07 01:51:30;;;;;;;1999.90;999.90;;;;;;;21.44;76.54;100978.16;15859155;28;20036;-61
2021/07/07 01:59:03;;;;;;;1999.90;999.90;;;;;;;21.41;74.80;100962.75;15901387;27;20045;-61
2021/07/07 02:06:36;;;;;;;1999.90;999.90;;;;;;;21.11;76.36;100982.06;15909265;27;20407;-62
2021/07/07 02:14:09;;;;;;;1999.90;999.90;;;;;;;20.73;77.95;100995.63;15883605;27;20040;-62
2021/07/07 02:21:41;;;;;;;1999.90;999.90;;;;;;;21.07;77.05;100990.56;15903730;27;20126;-61
2021/07/07 02:29:15;;;;;;;1999.90;999.90;;;;;;;20.90;77.83;101000.59;15888700;27;20047;-61
2021/07/07 02:36:48;;;;;;;1999.90;999.90;;;;;;;20.98;78.43;101007.13;15888621;27;20653;-61
2021/07/07 02:44:21;;;;;;;1999.90;999.90;;;;;;;20.63;79.19;100994.34;15894669;27;20047;-60
2021/07/07 02:51:54;;;;;;;1999.90;999.90;;;;;;;20.33;80.71;100985.22;15869946;28;20047;-61
2021/07/07 02:59:27;;;;;;;1999.90;999.90;;;;;;;20.56;79.03;100974.47;15905084;27;20035;-61
2021/07/07 03:06:59;;;;;;;1999.90;999.90;;;;;;;20.52;80.21;100992.66;15892282;27;20055;-61
2021/07/07 03:14:34;;;;;;;1999.90;999.90;;;;;;;20.92;78.88;100988.84;15878927;27;20131;-62
2021/07/07 03:22:07;;;;;;;1999.90;999.90;;;;;;;20.32;79.80;100970.25;15884507;27;20092;-62
2021/07/07 03:29:40;;;;;;;1999.90;999.90;;;;;;;20.74;79.51;101012.28;15879482;27;20191;-63
2021/07/07 03:37:12;;;;;;;1999.90;999.90;;;;;;;20.71;78.71;101032.09;15884554;27;20047;-62
2021/07/07 03:44:46;;;;;;;1999.90;999.90;;;;;;;20.30;79.82;101008.66;15890902;27;20043;-62
2021/07/07 03:52:18;;;;;;;1999.90;999.90;;;;;;;20.62;78.66;101015.41;15888555;27;20173;-63
2021/07/07 03:59:52;;;;;;;1999.90;999.90;;;;;;;20.64;79.72;101046.22;15892711;27;20487;-62
2021/07/07 04:07:25;;;;;;;1999.90;999.90;;;;;;;20.64;79.96;101001.69;15900653;27;20044;-63
2021/07/07 04:14:58;;;;;;;1999.90;999.90;;;;;;;20.45;80.85;101008.44;15882975;27;20052;-63
2021/07/07 04:22:30;;;;;;;1999.90;999.90;;;;;;;20.32;81.01;101043.09;15921136;27;20039;-61
2021/07/07 04:30:05;;;;;;;1999.90;999.90;;;;;;;20.62;80.76;101043.75;15953144;27;20169;-62
2021/07/07 04:37:39;;;;;;;1999.90;999.90;;;;;;;20.45;80.63;101084.94;15937725;27;20038;-62
2021/07/07 04:45:14;;;;;;;1999.90;999.90;;;;;;;20.66;80.77;101072.97;15939518;27;20043;-61
2021/07/07 04:52:46;;;;;;;1999.90;999.90;;;;;;;20.66;81.12;101084.31;15901610;22;20059;-55
2021/07/07 05:00:22;;;;;;;1999.90;999.90;;;;;;;20.66;80.57;101120.34;15844304;27;20452;-57
2021/07/07 05:07:54;;;;;;;1999.90;999.90;;;;;;;19.79;83.60;101168.78;15842423;28;20142;-54
2021/07/07 05:15:28;;;;;;;1999.90;999.90;;;;;;;19.79;84.20;101184.94;15861658;28;20082;-58
2021/07/07 05:23:06;;;;;;;1999.90;999.90;;;;;;;20.11;83.08;101193.84;15861050;28;20566;-57
2021/07/07 05:30:40;;;;;;;1999.90;999.90;;;;;;;20.01;82.80;101198.22;15825617;28;20158;-56
2021/07/07 05:38:12;;;;;;;1999.90;999.90;;;;;;;19.38;85.91;101193.25;15873675;28;20035;-57
2021/07/07 05:45:46;;;;;;;1999.90;999.90;;;;;;;19.16;88.22;101191.28;15832962;28;20062;-55
2021/07/07 05:53:18;;;;;;;1999.90;999.90;;;;;;;19.78;84.56;101201.13;15854909;28;20040;-53
2021/07/07 06:00:51;;;;;;;1999.90;999.90;;;;;;;20.28;83.57;101218.75;15864810;28;20062;-53
2021/07/07 06:08:24;;;;;;;1999.90;999.90;;;;;;;20.13;83.98;101220.59;15861453;28;20065;-55
2021/07/07 06:15:57;;;;;;;1999.90;999.90;;;;;;;20.17;83.44;101226.31;15872499;28;20407;-56
2021/07/07 06:23:29;;;;;;;1999.90;999.90;;;;;;;20.05;83.40;101223.75;15853287;28;20101;-56
2021/07/07 06:31:03;;;;;;;1999.90;999.90;;;;;;;20.17;83.24;101227.13;15871005;28;20048;-53
2021/07/07 06:38:35;;;;;;;1999.90;999.90;;;;;;;20.35;83.03;101229.38;15871018;28;20142;-62
2021/07/07 06:46:09;;;;;;;1999.90;999.90;;;;;;;20.65;82.46;101234.97;15870356;28;20043;-53
2021/07/07 06:53:41;;;;;;;1999.90;999.90;;;;;;;20.17;81.14;101229.97;15869521;28;20521;-58
2021/07/07 07:01:14;;;;;;;1999.90;999.90;;;;;;;20.45;80.67;101243.69;15850599;28;20044;-55
2021/07/07 07:08:46;;;;;;;1999.90;999.90;;;;;;;19.97;79.84;101268.13;15868733;28;20051;-57
2021/07/07 07:16:21;;;;;;;1999.90;999.90;;;;;;;20.23;80.94;101291.97;15868478;28;20039;-60
2021/07/07 07:23:53;;;;;;;1999.90;999.90;;;;;;;20.27;80.89;101315.47;15849010;28;20040;-57
2021/07/07 07:31:27;;;;;;;1999.90;999.90;;;;;;;20.30;80.56;101309.84;15867512;28;20132;-56
2021/07/07 07:39:00;;;;;;;1999.90;999.90;;;;;;;20.29;80.62;101298.91;15848759;28;20043;-60
2021/07/07 07:46:34;;;;;;;1999.90;999.90;;;;;;;19.93;81.75;101286.28;15830795;28;20040;-56
2021/07/07 07:54:06;;;;;;;1999.90;999.90;;;;;;;19.64;81.89;101282.22;15846301;28;20039;-58
2021/07/07 08:01:40;;;;;;;1999.90;999.90;;;;;;;19.70;81.64;101283.53;15864653;28;20040;-60
2021/07/07 08:09:13;;;;;;;1999.90;999.90;;;;;;;20.01;80.02;101293.66;15846363;28;20122;-58
2021/07/07 08:16:49;;;;;;;;;;;;;;;20.41;80.09;101333.47;15865128;28;20051;-59
2021/07/07 08:24:21;;;;;;;1999.90;999.90;;;;;;;20.41;80.31;101339.16;15829067;28;20380;-59
2021/07/07 08:31:54;;;;;;;1999.90;999.90;;;;;;;20.60;79.12;101335.38;15845644;28;20421;-59
2021/07/07 08:39:28;;;;;;;1999.90;999.90;;;;;;;20.30;77.69;101318.34;15863589;28;20040;-59
2021/07/07 08:47:03;;;;;;;1999.90;999.90;;;;;;;20.16;79.55;101315.34;15844646;28;20070;-59
2021/07/07 08:54:35;;;;;;;1999.90;999.90;;;;;;;20.08;78.90;101341.94;15862274;28;20468;-59
2021/07/07 09:02:11;;;;;;;1999.90;999.90;;;;;;;20.19;77.30;101369.22;15843707;28;20449;-59
2021/07/07 09:09:44;;;;;;;1999.90;999.90;;;;;;;20.64;78.64;101392.97;15844063;28;20071;-56
2021/07/07 09:17:20;;;;;;;1999.90;999.90;;;;;;;21.01;79.15;101406.34;15844089;28;20048;-59
2021/07/07 09:25:02;;;;;;;1999.90;999.90;;;;;;;20.90;80.08;101445.94;15843091;28;20067;-59
2021/07/07 09:32:43;;;;;;;1999.90;999.90;;;;;;;20.92;79.74;101435.00;15860455;28;20051;-58
2021/07/07 09:40:18;;;;;;;1999.90;999.90;;;;;;;20.62;80.67;101466.22;15842292;28;20050;-58
2021/07/07 09:47:51;;;;;;;1999.90;999.90;;;;;;;20.62;80.57;101485.25;15842444;28;20039;-60
2021/07/07 09:55:26;;;;;;;1999.90;999.90;;;;;;;20.64;79.20;101466.69;15842165;28;20071;-59
2021/07/07 10:02:59;;;;;;;1999.90;999.90;;;;;;;20.89;76.68;101474.69;15859853;28;20504;-56
2021/07/07 10:10:36;;;;;;;1999.90;999.90;;;;;;;21.82;76.33;101451.81;15862329;28;20119;-61
2021/07/07 10:18:10;;;;;;;1999.90;999.90;;;;;;;22.18;72.49;101455.78;15846329;28;20592;-61
2021/07/07 10:25:43;;;;;;;1999.90;999.90;;;;;;;22.03;71.54;101453.22;15852501;28;20089;-60
2021/07/07 10:33:18;;;;;;;1999.90;999.90;;;;;;;21.57;70.18;101440.25;15870848;28;20036;-61
2021/07/07 10:40:55;;;;;;;1999.90;999.90;;;;;;;21.42;74.19;101451.84;15851644;28;20096;-60
2021/07/07 10:48:32;;;;;;;1999.90;999.90;;;;;;;21.74;73.01;101478.53;15882142;22;20097;-62
2021/07/07 10:56:07;;;;;;;1999.90;999.90;;;;;;;21.80;72.42;101461.94;15712667;28;20048;-63
2021/07/07 11:03:58;;;;;;;1999.90;999.90;;;;;;;22.02;72.08;101458.06;15743499;28;20074;-63
2021/07/07 11:11:31;;;;;;;1999.90;999.90;;;;;;;22.54;69.05;101438.97;15740880;28;20106;-63
2021/07/07 11:19:39;;;;;;;1999.90;999.90;;;;;;;22.89;67.38;101446.88;15745984;28;20049;-63
2021/07/07 11:27:11;;;;;;;1999.90;999.90;;;;;;;24.39;64.02;101464.25;15743191;28;20109;-63
2021/07/07 11:34:52;;;;;;;1999.90;999.90;;;;;;;24.25;61.32;101461.34;15745467;28;20405;-63
2021/07/07 11:42:24;;;;;;;1999.90;999.90;;;;;;;23.75;64.09;101464.22;15744577;28;20083;-63
2021/07/07 11:50:07;;;;;;;1999.90;999.90;;;;;;;23.78;63.71;101472.78;15744526;28;20109;-63
2021/07/07 11:57:40;;;;;;;1999.90;999.90;;;;;;;24.18;62.65;101480.13;15742596;28;20062;-64
2021/07/07 12:05:15;;;;;;;1999.90;999.90;;;;;;;23.73;63.95;101429.63;15743594;28;20127;-62
2021/07/07 12:12:47;;;;;;;1999.90;999.90;;;;;;;23.25;63.64;101447.03;15743598;28;20063;-61
2021/07/07 12:20:21;;;;;;;1999.90;999.90;;;;;;;23.49;64.70;101466.19;15741199;28;20052;-63
2021/07/07 12:27:54;;;;;;;1999.90;999.90;;;;;;;22.70;66.03;101481.28;15742663;28;20048;-62
2021/07/07 12:35:28;;;;;;;1999.90;999.90;;;;;;;22.79;66.11;101464.69;15743286;28;20091;-63
2021/07/07 12:43:15;;;;;;;1999.90;999.90;;;;;;;23.56;64.14;101471.91;15741179;28;20406;-63
2021/07/07 12:50:49;;;;;;;1999.90;999.90;;;;;;;24.40;62.35;101480.13;15742024;28;20036;-63
2021/07/07 12:58:21;;;;;;;1999.90;999.90;;;;;;;26.54;55.01;101484.63;15740351;28;20451;-63
2021/07/07 13:05:55;;;;;;;1999.90;999.90;;;;;;;24.07;61.13;101473.59;15740408;28;20048;-63
2021/07/07 13:13:29;;;;;;;1999.90;999.90;;;;;;;23.66;61.47;101478.88;15737854;28;20041;-63
2021/07/07 13:21:05;;;;;;;1999.90;999.90;;;;;;;23.74;64.26;101488.22;15738090;28;20082;-63
2021/07/07 13:28:37;;;;;;;1999.90;999.90;;;;;;;23.36;63.56;101479.19;15738421;28;20051;-62
2021/07/07 13:36:10;;;;;;;1999.90;999.90;;;;;;;24.13;61.32;101488.25;15739106;28;20068;-63
2021/07/07 13:43:43;;;;;;;1999.90;999.90;;;;;;;23.85;64.02;101483.34;15739480;28;20548;-63
2021/07/07 13:51:17;;;;;;;1999.90;999.90;;;;;;;23.84;64.14;101493.94;15739198;28;20037;-61
2021/07/07 13:58:51;;;;;;;1999.90;999.90;;;;;;;24.47;62.69;101486.59;15752177;28;20052;-62
2021/07/07 14:06:24;;;;;;;1999.90;999.90;;;;;;;24.47;61.19;101486.59;15748749;28;20040;-61
2021/07/07 14:13:56;;;;;;;1999.90;999.90;;;;;;;24.70;58.74;101480.47;15749034;28;20040;-61
2021/07/07 14:21:30;;;;;;;1999.90;999.90;;;;;;;23.95;61.97;101484.56;15748919;28;20374;-62
2021/07/07 14:29:02;;;;;;;1999.90;999.90;;;;;;;23.84;61.74;101476.03;15747443;28;20075;-63
2021/07/07 14:36:36;;;;;;;1999.90;999.90;;;;;;;23.98;61.02;101470.34;15748905;28;20336;-63
2021/07/07 14:44:08;;;;;;;1999.90;999.90;;;;;;;24.21;60.87;101477.66;15730185;28;20505;-63
2021/07/07 14:51:42;;;;;;;1999.90;999.90;;;;;;;23.90;61.05;101486.63;15745972;28;20464;-63
2021/07/07 14:59:15;;;;;;;1999.90;999.90;;;;;;;23.95;61.44;101464.63;15746108;28;20045;-63
2021/07/07 15:06:48;;;;;;;1999.90;999.90;;;;;;;24.90;59.63;101457.13;15745152;28;20041;-61
2021/07/07 15:14:24;;;;;;;1999.90;999.90;;;;;;;24.51;60.80;101457.28;15745159;28;20036;-63
2021/07/07 15:21:58;;;;;;;1999.90;999.90;;;;;;;24.69;57.81;101467.41;15746112;28;20044;-63
2021/07/07 15:29:30;;;;;;;1999.90;999.90;;;;;;;23.81;60.94;101468.28;15745534;28;20615;-62
2021/07/07 15:37:04;;;;;;;1999.90;999.90;;;;;;;23.64;61.88;101472.75;15743887;28;20098;-62
2021/07/07 15:44:36;;;;;;;1999.90;999.90;;;;;;;23.44;62.69;101468.59;15744855;28;20127;-63
2021/07/07 15:52:10;;;;;;;1999.90;999.90;;;;;;;23.75;62.59;101464.22;15743451;28;20040;-62
2021/07/07 15:59:42;;;;;;;1999.90;999.90;;;;;;;23.76;62.39;101465.84;15743959;28;20352;-61
2021/07/07 16:07:16;;;;;;;1999.90;999.90;;;;;;;23.75;63.09;101476.41;15743376;28;20040;-62
2021/07/07 16:14:48;;;;;;;1999.90;999.90;;;;;;;23.61;62.49;101465.81;15740553;28;20036;-61
2021/07/07 16:22:22;;;;;;;1999.90;999.90;;;;;;;23.84;62.07;101464.63;15741001;28;20045;-61
2021/07/07 16:29:54;;;;;;;1999.90;999.90;;;;;;;23.66;62.57;101473.19;15742256;28;20176;-63
2021/07/07 16:37:28;;;;;;;;;;;;;;;24.12;61.38;101470.34;15743402;28;20040;-64
2021/07/07 16:45:00;;;;;;;1999.90;999.90;;;;;;;23.62;62.55;101472.34;15741710;28;19929;-63
2021/07/07 16:52:33;;;;;;;1999.90;999.90;;;;;;;23.37;61.68;101463.72;15715481;22;20045;-64
2021/07/07 17:00:10;;;;;;;1999.90;999.90;;;;;;;23.94;61.32;101469.50;15689513;28;20504;-63
2021/07/07 17:07:44;;;;;;;1999.90;999.90;;;;;;;23.80;60.46;101483.78;15743576;28;20411;-63
2021/07/07 17:15:16;;;;;;;1999.90;999.90;;;;;;;23.91;61.72;101478.88;15717888;28;20422;-64
2021/07/07 17:22:49;;;;;;;1999.90;999.90;;;;;;;23.77;60.84;101487.44;15717536;28;20040;-62
2021/07/07 17:30:22;;;;;;;1999.90;999.90;;;;;;;23.48;61.29;101493.03;15752481;28;20053;-63
2021/07/07 17:37:56;;;;;;;1999.90;999.90;;;;;;;23.95;59.97;101495.97;15754737;28;20389;-63
2021/07/07 17:45:28;;;;;;;1999.90;999.90;;;;;;;23.68;60.47;101493.53;15732056;28;20056;-63
2021/07/07 17:53:02;;;;;;;1999.90;999.90;;;;;;;23.93;59.90;101501.28;15754047;28;20143;-63
2021/07/07 18:00:34;;;;;;;1999.90;999.90;;;;;;;23.38;60.97;101505.22;15755635;28;20074;-63
2021/07/07 18:08:09;;;;;;;;;;;;;;;23.84;59.69;101502.47;15799173;28;20036;-64
2021/07/07 18:15:42;;;;;;;1999.90;999.90;;;;;;;23.64;60.53;101489.03;15768889;28;19920;-63
2021/07/07 18:23:16;;;;;;;1999.90;999.90;;;;;;;23.54;61.00;101496.28;15801566;28;20047;-63
2021/07/07 18:30:50;;;;;;;1999.90;999.90;;;;;;;23.71;60.61;101494.75;15769448;28;20040;-64
2021/07/07 18:38:23;;;;;;;1999.90;999.90;;;;;;;23.69;61.55;101489.44;15758364;28;20484;-64
2021/07/07 18:45:56;;;;;;;1999.90;999.90;;;;;;;23.41;62.69;101504.41;15769678;28;20462;-63
2021/07/07 18:53:30;;;;;;;;;;;;;;;23.67;62.57;101499.63;15722951;28;20481;-64
2021/07/07 19:01:03;;;;;;;1999.90;999.90;;;;;;;23.15;63.95;101513.28;15744392;28;20019;-63
2021/07/07 19:08:38;;;;;;;1999.90;999.90;;;;;;;22.81;65.25;101516.31;15795394;28;20044;-63
2021/07/07 19:16:11;;;;;;;1999.90;999.90;;;;;;;22.47;66.50;101525.03;15754914;28;20616;-59
2021/07/07 19:23:45;;;;;;;1999.90;999.90;;;;;;;22.56;66.63;101538.91;15761388;28;20043;-63
2021/07/07 19:31:17;;;;;;;1999.90;999.90;;;;;;;22.33;67.63;101558.25;15741965;28;20543;-63
2021/07/07 19:38:51;;;;;;;1999.90;999.90;;;;;;;22.56;67.55;101561.69;15779412;28;20045;-65
2021/07/07 19:46:25;;;;;;;1999.90;999.90;;;;;;;22.19;69.50;101558.91;15745928;28;20044;-64
2021/07/07 19:53:59;;;;;;;1999.90;999.90;;;;;;;21.96;71.01;101567.63;15776872;28;20041;-65
2021/07/07 20:01:31;;;;;;;1999.90;999.90;;;;;;;21.70;72.03;101562.88;15760677;28;20080;-65
2021/07/07 20:09:05;;;;;;;1999.90;999.90;;;;;;;21.63;71.95;101559.97;15765605;28;20085;-63
2021/07/07 20:16:38;;;;;;;1999.90;999.90;;;;;;;21.47;72.57;101565.88;15792421;28;20056;-65
2021/07/07 20:24:13;;;;;;;1999.90;999.90;;;;;;;21.16;73.79;101584.09;15721059;28;20040;-65
2021/07/07 20:31:45;;;;;;;1999.90;999.90;;;;;;;21.00;74.52;101589.94;15762258;28;20048;-65
2021/07/07 20:39:19;;;;;;;1999.90;999.90;;;;;;;20.90;74.77;101601.13;15737073;28;20040;-63
2021/07/07 20:46:54;;;;;;;1999.90;999.90;;;;;;;20.80;75.03;101596.13;15772811;28;20040;-65
2021/07/07 20:54:27;;;;;;;1999.90;999.90;;;;;;;20.63;75.38;101595.44;15720134;28;20040;-60
2021/07/07 21:01:59;;;;;;;1999.90;999.90;;;;;;;20.45;76.11;101594.38;15793802;28;20060;-64
2021/07/07 21:09:34;;;;;;;1999.90;999.90;;;;;;;20.43;76.34;101603.25;15734055;28;20513;-60
2021/07/07 21:17:06;;;;;;;1999.90;999.90;;;;;;;20.36;76.60;101600.25;15755536;28;20129;-63
2021/07/07 21:24:39;;;;;;;1999.90;999.90;;;;;;;19.99;77.69;101613.31;15753677;28;20131;-62
2021/07/07 21:32:12;;;;;;;1999.90;999.90;;;;;;;20.01;77.54;101622.25;15779566;28;20075;-60
2021/07/07 21:39:45;;;;;;;1999.90;999.90;;;;;;;20.06;77.60;101621.97;15734386;28;20555;-62
2021/07/07 21:47:20;;;;;;;1999.90;999.90;;;;;;;20.06;76.93;101625.63;15764108;28;20049;-64
2021/07/07 21:54:53;;;;;;;1999.90;999.90;;;;;;;19.98;77.61;101628.69;15724137;28;20040;-63
2021/07/07 22:02:25;;;;;;;1999.90;999.90;;;;;;;19.88;77.90;101625.28;15748744;28;20485;-65
2021/07/07 22:09:59;;;;;;;1999.90;999.90;;;;;;;19.80;78.03;101636.84;15740879;28;20317;-63
2021/07/07 22:17:31;;;;;;;1999.90;999.90;;;;;;;19.98;77.63;101637.19;15765972;28;20052;-64
2021/07/07 22:25:08;;;;;;;1999.90;999.90;;;;;;;19.61;78.97;101646.19;15761291;28;20214;-64
2021/07/07 22:32:40;;;;;;;1999.90;999.90;;;;;;;19.61;79.32;101643.34;15779320;28;20516;-64
2021/07/07 22:40:16;;;;;;;1999.90;999.90;;;;;;;19.89;78.95;101648.75;15789924;28;20326;-63
2021/07/07 22:47:48;;;;;;;1999.90;999.90;;;;;;;19.53;80.72;101662.16;15727478;28;20388;-64
2021/07/07 22:55:22;;;;;;;1999.90;999.90;;;;;;;19.76;79.79;101661.44;15859412;22;20048;-66
2021/07/07 23:02:55;;;;;;;1999.90;999.90;;;;;;;20.07;79.02;101674.59;15868768;27;20118;-64
2021/07/07 23:10:28;;;;;;;1999.90;999.90;;;;;;;20.04;78.57;101681.84;15874850;27;20036;-65
2021/07/07 23:18:00;;;;;;;1999.90;999.90;;;;;;;19.98;78.42;101669.16;15895607;27;20308;-66
2021/07/07 23:25:34;;;;;;;1999.90;999.90;;;;;;;19.96;78.21;101659.41;15887897;27;20456;-66
2021/07/07 23:33:07;;;;;;;1999.90;999.90;;;;;;;19.93;78.69;101677.16;15904792;27;20051;-65
2021/07/07 23:40:41;;;;;;;1999.90;999.90;;;;;;;19.70;78.99;101677.91;15847092;28;20146;-64
2021/07/07 23:48:13;;;;;;;1999.90;999.90;;;;;;;19.34;80.83;101670.63;15909699;27;20403;-66
2021/07/07 23:55:47;;;;;;;1999.90;999.90;;;;;;;19.48;79.29;101670.91;15905190;27;20067;-66
